sensor_id;sensor_type;location;lat;lon;timestamp;P1;durP1;ratioP1;P2;durP2;ratioP2
10963;SDS011;5534;48.784;9.190;2023-05-07T00:00:28;3.30;;;2.50;;
10963;SDS011;5534;48.784;9.190;2023-05-07T00:02:54;5.40;;;2.75;;
10963;SDS011;5534;48.784;9.190;2023-05-07T00:05:19;3.67;;;2.83;;
10963;SDS011;5534;48.784;9.190;2023-05-07T00:07:46;5.70;;;2.92;;
10963;SDS011;5534;48.784;9.190;2023-05-07T00:10:12;3.67;;;2.80;;
10963;SDS011;5534;48.784;9.190;2023-05-07T00:12:38;3.55;;;2.80;;
10963;SDS011;5534;48.784;9.190;2023-05-07T00:15:03;5.78;;;3.08;;
10963;SDS011;5534;48.784;9.190;2023-05-07T00:17:30;3.97;;;2.92;;
10963;SDS011;5534;48.784;9.190;2023-05-07T00:19:58;5.50;;;2.90;;
10963;SDS011;5534;48.784;9.190;2023-05-07T00:22:24;3.95;;;2.70;;
10963;SDS011;5534;48.784;9.190;2023-05-07T00:24:50;4.47;;;2.95;;
10963;SDS011;5534;48.784;9.190;2023-05-07T00:27:16;4.47;;;3.17;;
10963;SDS011;5534;48.784;9.190;2023-05-07T00:29:42;4.13;;;2.90;;
10963;SDS011;5534;48.784;9.190;2023-05-07T00:32:07;3.85;;;2.80;;
10963;SDS011;5534;48.784;9.190;2023-05-07T00:34:33;3.42;;;2.97;;
10963;SDS011;5534;48.784;9.190;2023-05-07T00:37:00;4.03;;;2.90;;
10963;SDS011;5534;48.784;9.190;2023-05-07T00:39:26;4.25;;;3.10;;
10963;SDS011;5534;48.784;9.190;2023-05-07T00:41:52;2.65;;;2.28;;
10963;SDS011;5534;48.784;9.190;2023-05-07T00:44:17;4.03;;;3.10;;
10963;SDS011;5534;48.784;9.190;2023-05-07T00:46:43;5.25;;;3.75;;
10963;SDS011;5534;48.784;9.190;2023-05-07T00:49:10;3.97;;;2.60;;
10963;SDS011;5534;48.784;9.190;2023-05-07T00:51:36;3.78;;;2.58;;
10963;SDS011;5534;48.784;9.190;2023-05-07T00:54:02;2.88;;;2.60;;
10963;SDS011;5534;48.784;9.190;2023-05-07T00:56:28;3.53;;;2.88;;
10963;SDS011;5534;48.784;9.190;2023-05-07T00:58:54;3.90;;;2.60;;
10963;SDS011;5534;48.784;9.190;2023-05-07T01:01:20;5.20;;;2.85;;
10963;SDS011;5534;48.784;9.190;2023-05-07T01:03:46;4.57;;;2.60;;
10963;SDS011;5534;48.784;9.190;2023-05-07T01:06:12;3.58;;;2.47;;
10963;SDS011;5534;48.784;9.190;2023-05-07T01:08:41;2.80;;;2.50;;
10963;SDS011;5534;48.784;9.190;2023-05-07T01:11:07;3.50;;;2.10;;
10963;SDS011;5534;48.784;9.190;2023-05-07T01:13:35;2.60;;;2.20;;
10963;SDS011;5534;48.784;9.190;2023-05-07T01:16:02;5.68;;;2.75;;
10963;SDS011;5534;48.784;9.190;2023-05-07T01:18:28;6.00;;;2.30;;
10963;SDS011;5534;48.784;9.190;2023-05-07T01:20:55;3.95;;;2.70;;
10963;SDS011;5534;48.784;9.190;2023-05-07T01:23:23;2.80;;;2.25;;
10963;SDS011;5534;48.784;9.190;2023-05-07T01:25:51;4.68;;;2.28;;
10963;SDS011;5534;48.784;9.190;2023-05-07T01:28:17;2.45;;;2.13;;
10963;SDS011;5534;48.784;9.190;2023-05-07T01:30:44;3.33;;;2.45;;
10963;SDS011;5534;48.784;9.190;2023-05-07T01:33:15;3.22;;;2.22;;
10963;SDS011;5534;48.784;9.190;2023-05-07T01:35:47;3.10;;;2.20;;
10963;SDS011;5534;48.784;9.190;2023-05-07T01:38:15;3.08;;;2.47;;
10963;SDS011;5534;48.784;9.190;2023-05-07T01:40:41;2.40;;;2.17;;
10963;SDS011;5534;48.784;9.190;2023-05-07T01:43:08;3.10;;;1.95;;
10963;SDS011;5534;48.784;9.190;2023-05-07T01:45:34;4.55;;;2.50;;
10963;SDS011;5534;48.784;9.190;2023-05-07T01:48:01;2.85;;;2.28;;
10963;SDS011;5534;48.784;9.190;2023-05-07T01:50:28;4.18;;;2.40;;
10963;SDS011;5534;48.784;9.190;2023-05-07T01:52:55;3.08;;;2.20;;
10963;SDS011;5534;48.784;9.190;2023-05-07T01:55:20;2.70;;;2.40;;
10963;SDS011;5534;48.784;9.190;2023-05-07T01:57:47;8.05;;;2.40;;
10963;SDS011;5534;48.784;9.190;2023-05-07T02:00:12;2.30;;;1.95;;
10963;SDS011;5534;48.784;9.190;2023-05-07T02:02:38;3.60;;;2.67;;
10963;SDS011;5534;48.784;9.190;2023-05-07T02:05:04;3.40;;;2.60;;
10963;SDS011;5534;48.784;9.190;2023-05-07T02:07:30;4.05;;;2.53;;
10963;SDS011;5534;48.784;9.190;2023-05-07T02:09:56;4.15;;;2.50;;
10963;SDS011;5534;48.784;9.190;2023-05-07T02:12:22;2.45;;;2.17;;
10963;SDS011;5534;48.784;9.190;2023-05-07T02:14:48;2.47;;;1.85;;
10963;SDS011;5534;48.784;9.190;2023-05-07T02:17:14;3.08;;;2.17;;
10963;SDS011;5534;48.784;9.190;2023-05-07T02:19:40;3.22;;;2.47;;
10963;SDS011;5534;48.784;9.190;2023-05-07T02:22:06;2.70;;;2.28;;
10963;SDS011;5534;48.784;9.190;2023-05-07T02:24:32;2.42;;;2.22;;
10963;SDS011;5534;48.784;9.190;2023-05-07T02:26:58;4.05;;;2.30;;
10963;SDS011;5534;48.784;9.190;2023-05-07T02:29:24;2.40;;;2.20;;
10963;SDS011;5534;48.784;9.190;2023-05-07T02:31:50;2.90;;;2.15;;
10963;SDS011;5534;48.784;9.190;2023-05-07T02:34:18;2.08;;;1.88;;
10963;SDS011;5534;48.784;9.190;2023-05-07T02:36:44;3.05;;;2.03;;
10963;SDS011;5534;48.784;9.190;2023-05-07T02:39:10;2.45;;;2.00;;
10963;SDS011;5534;48.784;9.190;2023-05-07T02:41:37;2.20;;;1.90;;
10963;SDS011;5534;48.784;9.190;2023-05-07T02:44:02;2.33;;;2.08;;
10963;SDS011;5534;48.784;9.190;2023-05-07T02:46:28;3.15;;;2.20;;
10963;SDS011;5534;48.784;9.190;2023-05-07T02:48:54;3.78;;;2.42;;
10963;SDS011;5534;48.784;9.190;2023-05-07T02:51:21;3.20;;;2.10;;
10963;SDS011;5534;48.784;9.190;2023-05-07T02:53:47;3.63;;;2.47;;
10963;SDS011;5534;48.784;9.190;2023-05-07T02:56:13;3.00;;;2.10;;
10963;SDS011;5534;48.784;9.190;2023-05-07T02:58:39;3.10;;;2.15;;
10963;SDS011;5534;48.784;9.190;2023-05-07T03:01:07;2.40;;;1.95;;
10963;SDS011;5534;48.784;9.190;2023-05-07T03:03:33;2.97;;;2.35;;
10963;SDS011;5534;48.784;9.190;2023-05-07T03:05:59;3.67;;;2.00;;
10963;SDS011;5534;48.784;9.190;2023-05-07T03:08:25;2.90;;;2.15;;
10963;SDS011;5534;48.784;9.190;2023-05-07T03:10:51;3.67;;;2.35;;
10963;SDS011;5534;48.784;9.190;2023-05-07T03:13:17;2.45;;;1.98;;
10963;SDS011;5534;48.784;9.190;2023-05-07T03:15:42;2.65;;;2.00;;
10963;SDS011;5534;48.784;9.190;2023-05-07T03:18:08;3.90;;;2.22;;
10963;SDS011;5534;48.784;9.190;2023-05-07T03:20:34;3.15;;;2.38;;
10963;SDS011;5534;48.784;9.190;2023-05-07T03:23:01;4.25;;;2.13;;
10963;SDS011;5534;48.784;9.190;2023-05-07T03:25:27;3.58;;;2.60;;
10963;SDS011;5534;48.784;9.190;2023-05-07T03:27:55;3.70;;;2.67;;
10963;SDS011;5534;48.784;9.190;2023-05-07T03:30:21;2.53;;;2.28;;
10963;SDS011;5534;48.784;9.190;2023-05-07T03:32:47;4.05;;;2.20;;
10963;SDS011;5534;48.784;9.190;2023-05-07T03:35:13;3.30;;;2.60;;
10963;SDS011;5534;48.784;9.190;2023-05-07T03:37:39;4.25;;;2.75;;
10963;SDS011;5534;48.784;9.190;2023-05-07T03:40:05;4.25;;;2.60;;
10963;SDS011;5534;48.784;9.190;2023-05-07T03:42:31;4.53;;;2.88;;
10963;SDS011;5534;48.784;9.190;2023-05-07T03:44:57;4.45;;;2.72;;
10963;SDS011;5534;48.784;9.190;2023-05-07T03:47:23;3.45;;;2.50;;
10963;SDS011;5534;48.784;9.190;2023-05-07T03:49:48;5.43;;;2.92;;
10963;SDS011;5534;48.784;9.190;2023-05-07T03:52:15;5.78;;;2.85;;
10963;SDS011;5534;48.784;9.190;2023-05-07T03:54:41;3.13;;;2.60;;
10963;SDS011;5534;48.784;9.190;2023-05-07T03:57:07;4.40;;;2.60;;
10963;SDS011;5534;48.784;9.190;2023-05-07T03:59:32;3.63;;;2.83;;
10963;SDS011;5534;48.784;9.190;2023-05-07T04:01:58;3.75;;;2.78;;
10963;SDS011;5534;48.784;9.190;2023-05-07T04:04:24;3.35;;;2.40;;
10963;SDS011;5534;48.784;9.190;2023-05-07T04:06:49;4.18;;;2.70;;
10963;SDS011;5534;48.784;9.190;2023-05-07T04:09:16;3.17;;;2.50;;
10963;SDS011;5534;48.784;9.190;2023-05-07T04:11:42;3.80;;;2.70;;
10963;SDS011;5534;48.784;9.190;2023-05-07T04:14:08;5.38;;;2.72;;
10963;SDS011;5534;48.784;9.190;2023-05-07T04:16:34;4.03;;;2.67;;
10963;SDS011;5534;48.784;9.190;2023-05-07T04:19:00;5.10;;;2.50;;
10963;SDS011;5534;48.784;9.190;2023-05-07T04:21:26;4.20;;;2.97;;
10963;SDS011;5534;48.784;9.190;2023-05-07T04:23:52;3.60;;;2.50;;
10963;SDS011;5534;48.784;9.190;2023-05-07T04:26:17;5.35;;;2.90;;
10963;SDS011;5534;48.784;9.190;2023-05-07T04:28:43;4.55;;;2.83;;
10963;SDS011;5534;48.784;9.190;2023-05-07T04:31:09;4.28;;;2.65;;
10963;SDS011;5534;48.784;9.190;2023-05-07T04:33:35;2.97;;;2.35;;
10963;SDS011;5534;48.784;9.190;2023-05-07T04:36:01;5.00;;;2.53;;
10963;SDS011;5534;48.784;9.190;2023-05-07T04:38:30;4.20;;;2.33;;
10963;SDS011;5534;48.784;9.190;2023-05-07T04:40:56;4.93;;;2.78;;
10963;SDS011;5534;48.784;9.190;2023-05-07T04:43:23;3.50;;;2.25;;
10963;SDS011;5534;48.784;9.190;2023-05-07T04:45:51;4.15;;;2.30;;
10963;SDS011;5534;48.784;9.190;2023-05-07T04:48:17;4.82;;;2.60;;
10963;SDS011;5534;48.784;9.190;2023-05-07T04:50:49;4.03;;;2.70;;
10963;SDS011;5534;48.784;9.190;2023-05-07T04:53:15;3.72;;;2.78;;
10963;SDS011;5534;48.784;9.190;2023-05-07T04:55:41;6.43;;;2.95;;
10963;SDS011;5534;48.784;9.190;2023-05-07T04:58:07;3.00;;;2.47;;
10963;SDS011;5534;48.784;9.190;2023-05-07T05:00:32;4.32;;;2.95;;
10963;SDS011;5534;48.784;9.190;2023-05-07T05:02:58;3.72;;;2.80;;
10963;SDS011;5534;48.784;9.190;2023-05-07T05:05:24;3.90;;;2.58;;
10963;SDS011;5534;48.784;9.190;2023-05-07T05:07:50;4.10;;;2.70;;
10963;SDS011;5534;48.784;9.190;2023-05-07T05:10:16;4.93;;;3.25;;
10963;SDS011;5534;48.784;9.190;2023-05-07T05:12:42;5.10;;;3.00;;
10963;SDS011;5534;48.784;9.190;2023-05-07T05:15:11;2.95;;;2.55;;
10963;SDS011;5534;48.784;9.190;2023-05-07T05:17:38;4.10;;;2.90;;
10963;SDS011;5534;48.784;9.190;2023-05-07T05:20:06;3.85;;;2.75;;
10963;SDS011;5534;48.784;9.190;2023-05-07T05:22:32;5.70;;;3.15;;
10963;SDS011;5534;48.784;9.190;2023-05-07T05:24:58;3.55;;;3.00;;
10963;SDS011;5534;48.784;9.190;2023-05-07T05:27:24;3.38;;;2.80;;
10963;SDS011;5534;48.784;9.190;2023-05-07T05:29:49;4.75;;;3.28;;
10963;SDS011;5534;48.784;9.190;2023-05-07T05:32:15;4.88;;;3.40;;
10963;SDS011;5534;48.784;9.190;2023-05-07T05:34:41;5.10;;;2.97;;
10963;SDS011;5534;48.784;9.190;2023-05-07T05:37:06;3.78;;;2.67;;
10963;SDS011;5534;48.784;9.190;2023-05-07T05:39:32;4.30;;;3.20;;
10963;SDS011;5534;48.784;9.190;2023-05-07T05:41:58;5.35;;;3.13;;
10963;SDS011;5534;48.784;9.190;2023-05-07T05:44:24;4.75;;;3.17;;
10963;SDS011;5534;48.784;9.190;2023-05-07T05:46:50;5.25;;;3.08;;
10963;SDS011;5534;48.784;9.190;2023-05-07T05:49:16;3.88;;;3.00;;
10963;SDS011;5534;48.784;9.190;2023-05-07T05:51:42;5.45;;;3.40;;
10963;SDS011;5534;48.784;9.190;2023-05-07T05:54:08;3.88;;;3.05;;
10963;SDS011;5534;48.784;9.190;2023-05-07T05:56:34;3.95;;;3.15;;
10963;SDS011;5534;48.784;9.190;2023-05-07T05:59:00;5.90;;;3.58;;
10963;SDS011;5534;48.784;9.190;2023-05-07T06:01:25;4.28;;;3.30;;
10963;SDS011;5534;48.784;9.190;2023-05-07T06:03:51;4.95;;;3.22;;
10963;SDS011;5534;48.784;9.190;2023-05-07T06:06:17;4.72;;;3.80;;
10963;SDS011;5534;48.784;9.190;2023-05-07T06:08:43;4.13;;;3.40;;
10963;SDS011;5534;48.784;9.190;2023-05-07T06:11:09;4.85;;;3.60;;
10963;SDS011;5534;48.784;9.190;2023-05-07T06:13:35;8.10;;;4.63;;
10963;SDS011;5534;48.784;9.190;2023-05-07T06:16:00;5.35;;;3.80;;
10963;SDS011;5534;48.784;9.190;2023-05-07T06:18:26;3.50;;;2.90;;
10963;SDS011;5534;48.784;9.190;2023-05-07T06:20:52;4.35;;;3.40;;
10963;SDS011;5534;48.784;9.190;2023-05-07T06:23:18;4.32;;;3.63;;
10963;SDS011;5534;48.784;9.190;2023-05-07T06:25:50;6.07;;;3.45;;
10963;SDS011;5534;48.784;9.190;2023-05-07T06:28:16;5.18;;;3.33;;
10963;SDS011;5534;48.784;9.190;2023-05-07T06:30:42;4.80;;;3.40;;
10963;SDS011;5534;48.784;9.190;2023-05-07T06:33:08;4.55;;;3.55;;
10963;SDS011;5534;48.784;9.190;2023-05-07T06:35:34;3.60;;;3.03;;
10963;SDS011;5534;48.784;9.190;2023-05-07T06:38:02;4.43;;;3.67;;
10963;SDS011;5534;48.784;9.190;2023-05-07T06:40:28;4.60;;;3.45;;
10963;SDS011;5534;48.784;9.190;2023-05-07T06:42:53;6.57;;;3.60;;
10963;SDS011;5534;48.784;9.190;2023-05-07T06:45:19;4.93;;;3.72;;
10963;SDS011;5534;48.784;9.190;2023-05-07T06:47:45;4.35;;;3.47;;
10963;SDS011;5534;48.784;9.190;2023-05-07T06:50:11;4.22;;;3.55;;
10963;SDS011;5534;48.784;9.190;2023-05-07T06:52:37;4.20;;;3.60;;
10963;SDS011;5534;48.784;9.190;2023-05-07T06:55:03;4.65;;;3.95;;
10963;SDS011;5534;48.784;9.190;2023-05-07T06:57:29;4.57;;;3.28;;
10963;SDS011;5534;48.784;9.190;2023-05-07T06:59:55;3.15;;;2.85;;
10963;SDS011;5534;48.784;9.190;2023-05-07T07:02:21;4.38;;;3.15;;
10963;SDS011;5534;48.784;9.190;2023-05-07T07:04:46;4.53;;;3.40;;
10963;SDS011;5534;48.784;9.190;2023-05-07T07:07:12;4.30;;;3.28;;
10963;SDS011;5534;48.784;9.190;2023-05-07T07:09:38;6.50;;;4.57;;
10963;SDS011;5534;48.784;9.190;2023-05-07T07:12:04;5.40;;;4.00;;
10963;SDS011;5534;48.784;9.190;2023-05-07T07:14:30;6.43;;;3.85;;
10963;SDS011;5534;48.784;9.190;2023-05-07T07:16:55;4.53;;;3.60;;
10963;SDS011;5534;48.784;9.190;2023-05-07T07:19:21;5.85;;;3.65;;
10963;SDS011;5534;48.784;9.190;2023-05-07T07:21:47;4.32;;;3.00;;
10963;SDS011;5534;48.784;9.190;2023-05-07T07:24:13;4.60;;;3.22;;
10963;SDS011;5534;48.784;9.190;2023-05-07T07:26:44;4.10;;;3.42;;
10963;SDS011;5534;48.784;9.190;2023-05-07T07:29:10;5.10;;;4.03;;
10963;SDS011;5534;48.784;9.190;2023-05-07T07:31:36;3.97;;;3.13;;
10963;SDS011;5534;48.784;9.190;2023-05-07T07:34:01;4.28;;;3.50;;
10963;SDS011;5534;48.784;9.190;2023-05-07T07:36:27;4.63;;;3.28;;
10963;SDS011;5534;48.784;9.190;2023-05-07T07:38:53;3.80;;;3.20;;
10963;SDS011;5534;48.784;9.190;2023-05-07T07:41:19;4.03;;;2.88;;
10963;SDS011;5534;48.784;9.190;2023-05-07T07:43:45;3.70;;;3.17;;
10963;SDS011;5534;48.784;9.190;2023-05-07T07:46:12;4.13;;;2.72;;
10963;SDS011;5534;48.784;9.190;2023-05-07T07:48:37;3.47;;;2.72;;
10963;SDS011;5534;48.784;9.190;2023-05-07T07:51:03;4.75;;;2.38;;
10963;SDS011;5534;48.784;9.190;2023-05-07T07:53:29;2.90;;;2.28;;
10963;SDS011;5534;48.784;9.190;2023-05-07T07:55:55;3.00;;;2.40;;
10963;SDS011;5534;48.784;9.190;2023-05-07T07:58:21;3.17;;;2.38;;
10963;SDS011;5534;48.784;9.190;2023-05-07T08:00:47;4.43;;;2.50;;
10963;SDS011;5534;48.784;9.190;2023-05-07T08:03:13;3.40;;;2.40;;
10963;SDS011;5534;48.784;9.190;2023-05-07T08:05:41;6.13;;;3.03;;
10963;SDS011;5534;48.784;9.190;2023-05-07T08:08:07;4.93;;;3.53;;
10963;SDS011;5534;48.784;9.190;2023-05-07T08:10:33;2.88;;;2.30;;
10963;SDS011;5534;48.784;9.190;2023-05-07T08:13:00;2.58;;;2.15;;
10963;SDS011;5534;48.784;9.190;2023-05-07T08:15:26;2.30;;;1.70;;
10963;SDS011;5534;48.784;9.190;2023-05-07T08:17:52;2.35;;;1.77;;
10963;SDS011;5534;48.784;9.190;2023-05-07T08:20:18;2.65;;;1.88;;
10963;SDS011;5534;48.784;9.190;2023-05-07T08:22:44;2.38;;;1.77;;
10963;SDS011;5534;48.784;9.190;2023-05-07T08:25:10;4.72;;;1.95;;
10963;SDS011;5534;48.784;9.190;2023-05-07T08:27:36;2.13;;;1.90;;
10963;SDS011;5534;48.784;9.190;2023-05-07T08:30:02;2.40;;;1.60;;
10963;SDS011;5534;48.784;9.190;2023-05-07T08:32:28;2.08;;;1.60;;
10963;SDS011;5534;48.784;9.190;2023-05-07T08:34:54;3.40;;;1.80;;
10963;SDS011;5534;48.784;9.190;2023-05-07T08:37:20;3.03;;;1.80;;
10963;SDS011;5534;48.784;9.190;2023-05-07T08:39:46;2.85;;;2.00;;
10963;SDS011;5534;48.784;9.190;2023-05-07T08:42:12;2.67;;;1.85;;
10963;SDS011;5534;48.784;9.190;2023-05-07T08:44:41;2.00;;;1.58;;
10963;SDS011;5534;48.784;9.190;2023-05-07T08:47:13;3.60;;;1.67;;
10963;SDS011;5534;48.784;9.190;2023-05-07T08:49:39;1.85;;;1.38;;
10963;SDS011;5534;48.784;9.190;2023-05-07T08:52:05;4.38;;;1.60;;
10963;SDS011;5534;48.784;9.190;2023-05-07T08:54:31;3.10;;;1.60;;
10963;SDS011;5534;48.784;9.190;2023-05-07T08:56:58;2.55;;;2.10;;
10963;SDS011;5534;48.784;9.190;2023-05-07T08:59:24;1.90;;;1.50;;
10963;SDS011;5534;48.784;9.190;2023-05-07T09:01:51;2.17;;;1.67;;
10963;SDS011;5534;48.784;9.190;2023-05-07T09:04:16;1.63;;;1.42;;
10963;SDS011;5534;48.784;9.190;2023-05-07T09:06:42;2.63;;;1.80;;
10963;SDS011;5534;48.784;9.190;2023-05-07T09:09:21;2.05;;;1.85;;
10963;SDS011;5534;48.784;9.190;2023-05-07T09:11:47;1.38;;;1.23;;
10963;SDS011;5534;48.784;9.190;2023-05-07T09:14:13;2.78;;;1.65;;
10963;SDS011;5534;48.784;9.190;2023-05-07T09:16:42;2.55;;;1.42;;
10963;SDS011;5534;48.784;9.190;2023-05-07T09:19:08;1.90;;;1.40;;
10963;SDS011;5534;48.784;9.190;2023-05-07T09:21:34;1.23;;;0.90;;
10963;SDS011;5534;48.784;9.190;2023-05-07T09:24:00;1.92;;;1.50;;
10963;SDS011;5534;48.784;9.190;2023-05-07T09:26:26;1.73;;;1.30;;
10963;SDS011;5534;48.784;9.190;2023-05-07T09:28:53;2.38;;;1.63;;
10963;SDS011;5534;48.784;9.190;2023-05-07T09:31:20;1.92;;;1.70;;
10963;SDS011;5534;48.784;9.190;2023-05-07T09:33:48;1.60;;;1.30;;
10963;SDS011;5534;48.784;9.190;2023-05-07T09:36:14;2.17;;;1.23;;
10963;SDS011;5534;48.784;9.190;2023-05-07T09:38:40;1.45;;;1.33;;
10963;SDS011;5534;48.784;9.190;2023-05-07T09:41:11;2.13;;;1.45;;
10963;SDS011;5534;48.784;9.190;2023-05-07T09:43:38;2.03;;;1.20;;
10963;SDS011;5534;48.784;9.190;2023-05-07T09:46:11;3.40;;;1.60;;
10963;SDS011;5534;48.784;9.190;2023-05-07T09:48:38;2.97;;;1.38;;
10963;SDS011;5534;48.784;9.190;2023-05-07T09:51:08;1.60;;;1.35;;
10963;SDS011;5534;48.784;9.190;2023-05-07T09:53:43;8.05;;;2.22;;
10963;SDS011;5534;48.784;9.190;2023-05-07T09:56:12;1.60;;;1.50;;
10963;SDS011;5534;48.784;9.190;2023-05-07T09:58:40;3.00;;;0.95;;
10963;SDS011;5534;48.784;9.190;2023-05-07T10:01:07;1.58;;;1.20;;
10963;SDS011;5534;48.784;9.190;2023-05-07T10:03:33;2.83;;;1.27;;
10963;SDS011;5534;48.784;9.190;2023-05-07T10:06:01;1.40;;;1.30;;
10963;SDS011;5534;48.784;9.190;2023-05-07T10:08:28;2.65;;;1.35;;
10963;SDS011;5534;48.784;9.190;2023-05-07T10:10:57;1.58;;;1.30;;
10963;SDS011;5534;48.784;9.190;2023-05-07T10:13:23;2.10;;;1.20;;
10963;SDS011;5534;48.784;9.190;2023-05-07T10:15:49;1.75;;;1.42;;
10963;SDS011;5534;48.784;9.190;2023-05-07T10:18:16;1.30;;;1.20;;
10963;SDS011;5534;48.784;9.190;2023-05-07T10:20:43;1.30;;;1.10;;
10963;SDS011;5534;48.784;9.190;2023-05-07T10:23:13;1.75;;;1.35;;
10963;SDS011;5534;48.784;9.190;2023-05-07T10:25:43;1.95;;;1.50;;
10963;SDS011;5534;48.784;9.190;2023-05-07T10:28:09;1.98;;;1.17;;
10963;SDS011;5534;48.784;9.190;2023-05-07T10:33:28;1.88;;;1.52;;
10963;SDS011;5534;48.784;9.190;2023-05-07T10:35:57;2.20;;;1.30;;
10963;SDS011;5534;48.784;9.190;2023-05-07T10:38:24;4.60;;;2.95;;
10963;SDS011;5534;48.784;9.190;2023-05-07T10:40:51;3.22;;;1.50;;
10963;SDS011;5534;48.784;9.190;2023-05-07T10:43:18;3.53;;;1.48;;
10963;SDS011;5534;48.784;9.190;2023-05-07T10:46:30;2.30;;;1.15;;
10963;SDS011;5534;48.784;9.190;2023-05-07T10:48:34;2.65;;;2.10;;
10963;SDS011;5534;48.784;9.190;2023-05-07T10:51:31;4.88;;;2.08;;
10963;SDS011;5534;48.784;9.190;2023-05-07T10:56:36;2.65;;;1.40;;
10963;SDS011;5534;48.784;9.190;2023-05-07T11:01:59;3.08;;;1.90;;
10963;SDS011;5534;48.784;9.190;2023-05-07T11:04:28;1.75;;;1.40;;
10963;SDS011;5534;48.784;9.190;2023-05-07T11:12:16;1.92;;;1.50;;
10963;SDS011;5534;48.784;9.190;2023-05-07T11:14:45;3.95;;;1.30;;
10963;SDS011;5534;48.784;9.190;2023-05-07T11:17:11;1.25;;;1.15;;
10963;SDS011;5534;48.784;9.190;2023-05-07T11:19:50;2.78;;;1.17;;
10963;SDS011;5534;48.784;9.190;2023-05-07T11:25:06;2.15;;;1.20;;
10963;SDS011;5534;48.784;9.190;2023-05-07T11:27:32;2.13;;;1.50;;
10963;SDS011;5534;48.784;9.190;2023-05-07T11:29:58;1.75;;;1.30;;
10963;SDS011;5534;48.784;9.190;2023-05-07T11:32:29;1.75;;;1.60;;
10963;SDS011;5534;48.784;9.190;2023-05-07T11:34:57;6.45;;;2.05;;
10963;SDS011;5534;48.784;9.190;2023-05-07T11:37:24;3.15;;;2.00;;
10963;SDS011;5534;48.784;9.190;2023-05-07T11:40:01;3.30;;;2.17;;
10963;SDS011;5534;48.784;9.190;2023-05-07T11:42:29;2.40;;;1.50;;
10963;SDS011;5534;48.784;9.190;2023-05-07T11:44:56;2.95;;;2.00;;
10963;SDS011;5534;48.784;9.190;2023-05-07T11:47:22;3.05;;;2.17;;
10963;SDS011;5534;48.784;9.190;2023-05-07T11:49:51;2.50;;;2.03;;
10963;SDS011;5534;48.784;9.190;2023-05-07T11:52:18;2.35;;;1.75;;
10963;SDS011;5534;48.784;9.190;2023-05-07T11:54:52;4.53;;;1.80;;
10963;SDS011;5534;48.784;9.190;2023-05-07T11:57:20;3.22;;;1.85;;
10963;SDS011;5534;48.784;9.190;2023-05-07T11:59:46;1.73;;;1.40;;
10963;SDS011;5534;48.784;9.190;2023-05-07T12:02:14;3.85;;;1.60;;
10963;SDS011;5534;48.784;9.190;2023-05-07T12:04:40;2.88;;;1.60;;
10963;SDS011;5534;48.784;9.190;2023-05-07T12:07:12;2.85;;;1.60;;
10963;SDS011;5534;48.784;9.190;2023-05-07T12:09:40;2.72;;;2.08;;
10963;SDS011;5534;48.784;9.190;2023-05-07T12:12:06;3.35;;;2.00;;
10963;SDS011;5534;48.784;9.190;2023-05-07T12:14:32;3.08;;;2.33;;
10963;SDS011;5534;48.784;9.190;2023-05-07T12:17:02;3.33;;;2.67;;
10963;SDS011;5534;48.784;9.190;2023-05-07T12:19:30;3.17;;;1.98;;
10963;SDS011;5534;48.784;9.190;2023-05-07T12:21:56;4.03;;;2.50;;
10963;SDS011;5534;48.784;9.190;2023-05-07T12:24:22;4.50;;;2.42;;
10963;SDS011;5534;48.784;9.190;2023-05-07T12:26:48;7.63;;;2.78;;
10963;SDS011;5534;48.784;9.190;2023-05-07T12:29:14;5.13;;;2.38;;
10963;SDS011;5534;48.784;9.190;2023-05-07T12:31:43;6.18;;;2.60;;
10963;SDS011;5534;48.784;9.190;2023-05-07T12:34:12;5.43;;;2.75;;
10963;SDS011;5534;48.784;9.190;2023-05-07T12:36:38;4.93;;;2.75;;
10963;SDS011;5534;48.784;9.190;2023-05-07T12:39:08;3.47;;;1.67;;
10963;SDS011;5534;48.784;9.190;2023-05-07T12:44:30;2.40;;;1.55;;
10963;SDS011;5534;48.784;9.190;2023-05-07T12:46:58;4.07;;;2.13;;
10963;SDS011;5534;48.784;9.190;2023-05-07T12:49:27;3.55;;;2.00;;
10963;SDS011;5534;48.784;9.190;2023-05-07T12:51:53;3.40;;;2.38;;
10963;SDS011;5534;48.784;9.190;2023-05-07T12:59:31;2.60;;;1.30;;
10963;SDS011;5534;48.784;9.190;2023-05-07T13:02:02;2.53;;;1.40;;
10963;SDS011;5534;48.784;9.190;2023-05-07T13:04:27;4.38;;;1.70;;
10963;SDS011;5534;48.784;9.190;2023-05-07T13:06:53;1.40;;;0.90;;
10963;SDS011;5534;48.784;9.190;2023-05-07T13:09:19;5.07;;;1.27;;
10963;SDS011;5534;48.784;9.190;2023-05-07T13:11:45;6.57;;;1.88;;
10963;SDS011;5534;48.784;9.190;2023-05-07T13:14:11;8.00;;;2.00;;
10963;SDS011;5534;48.784;9.190;2023-05-07T13:16:37;1.40;;;1.10;;
10963;SDS011;5534;48.784;9.190;2023-05-07T13:19:03;2.85;;;1.00;;
10963;SDS011;5534;48.784;9.190;2023-05-07T13:21:29;4.38;;;1.30;;
10963;SDS011;5534;48.784;9.190;2023-05-07T13:23:57;2.28;;;1.00;;
10963;SDS011;5534;48.784;9.190;2023-05-07T13:26:23;2.08;;;1.55;;
10963;SDS011;5534;48.784;9.190;2023-05-07T13:28:49;1.88;;;1.42;;
10963;SDS011;5534;48.784;9.190;2023-05-07T13:31:19;2.58;;;1.73;;
10963;SDS011;5534;48.784;9.190;2023-05-07T13:33:46;2.25;;;1.33;;
10963;SDS011;5534;48.784;9.190;2023-05-07T13:36:12;1.60;;;1.50;;
10963;SDS011;5534;48.784;9.190;2023-05-07T13:38:38;4.85;;;1.50;;
10963;SDS011;5534;48.784;9.190;2023-05-07T13:41:05;2.80;;;1.58;;
10963;SDS011;5534;48.784;9.190;2023-05-07T13:43:30;2.90;;;1.48;;
10963;SDS011;5534;48.784;9.190;2023-05-07T13:45:58;2.30;;;1.27;;
10963;SDS011;5534;48.784;9.190;2023-05-07T13:48:24;2.90;;;1.17;;
10963;SDS011;5534;48.784;9.190;2023-05-07T13:50:50;2.30;;;0.85;;
10963;SDS011;5534;48.784;9.190;2023-05-07T13:53:16;1.23;;;0.90;;
10963;SDS011;5534;48.784;9.190;2023-05-07T13:55:43;1.40;;;1.05;;
10963;SDS011;5534;48.784;9.190;2023-05-07T13:58:10;1.70;;;0.80;;
10963;SDS011;5534;48.784;9.190;2023-05-07T14:00:36;2.53;;;1.40;;
10963;SDS011;5534;48.784;9.190;2023-05-07T14:03:03;1.73;;;1.00;;
10963;SDS011;5534;48.784;9.190;2023-05-07T14:05:30;1.85;;;1.10;;
10963;SDS011;5534;48.784;9.190;2023-05-07T14:07:59;1.60;;;1.30;;
10963;SDS011;5534;48.784;9.190;2023-05-07T14:10:25;4.47;;;1.20;;
10963;SDS011;5534;48.784;9.190;2023-05-07T14:12:51;2.58;;;1.10;;
10963;SDS011;5534;48.784;9.190;2023-05-07T14:15:17;2.63;;;1.33;;
10963;SDS011;5534;48.784;9.190;2023-05-07T14:17:44;3.88;;;1.20;;
10963;SDS011;5534;48.784;9.190;2023-05-07T14:20:10;1.80;;;1.50;;
10963;SDS011;5534;48.784;9.190;2023-05-07T14:22:37;1.70;;;1.27;;
10963;SDS011;5534;48.784;9.190;2023-05-07T14:25:02;3.20;;;2.00;;
10963;SDS011;5534;48.784;9.190;2023-05-07T14:27:29;5.15;;;2.30;;
10963;SDS011;5534;48.784;9.190;2023-05-07T14:29:54;2.80;;;1.60;;
10963;SDS011;5534;48.784;9.190;2023-05-07T14:32:20;3.35;;;1.83;;
10963;SDS011;5534;48.784;9.190;2023-05-07T14:34:46;1.73;;;1.48;;
10963;SDS011;5534;48.784;9.190;2023-05-07T14:37:12;3.45;;;2.05;;
10963;SDS011;5534;48.784;9.190;2023-05-07T14:39:38;2.30;;;1.67;;
10963;SDS011;5534;48.784;9.190;2023-05-07T14:42:04;2.10;;;1.50;;
10963;SDS011;5534;48.784;9.190;2023-05-07T14:44:30;2.63;;;1.55;;
10963;SDS011;5534;48.784;9.190;2023-05-07T14:46:56;4.72;;;1.60;;
10963;SDS011;5534;48.784;9.190;2023-05-07T14:49:22;4.07;;;2.10;;
10963;SDS011;5534;48.784;9.190;2023-05-07T14:51:48;2.92;;;2.00;;
10963;SDS011;5534;48.784;9.190;2023-05-07T14:54:14;4.97;;;1.95;;
10963;SDS011;5534;48.784;9.190;2023-05-07T14:56:42;5.07;;;2.13;;
10963;SDS011;5534;48.784;9.190;2023-05-07T14:59:08;4.28;;;2.15;;
10963;SDS011;5534;48.784;9.190;2023-05-07T15:01:34;4.60;;;2.40;;
10963;SDS011;5534;48.784;9.190;2023-05-07T15:04:01;5.63;;;3.40;;
10963;SDS011;5534;48.784;9.190;2023-05-07T15:06:28;4.63;;;2.65;;
10963;SDS011;5534;48.784;9.190;2023-05-07T15:08:54;5.85;;;3.20;;
10963;SDS011;5534;48.784;9.190;2023-05-07T15:11:20;6.35;;;3.10;;
10963;SDS011;5534;48.784;9.190;2023-05-07T15:13:46;6.13;;;3.63;;
10963;SDS011;5534;48.784;9.190;2023-05-07T15:16:11;5.25;;;2.38;;
10963;SDS011;5534;48.784;9.190;2023-05-07T15:18:37;4.38;;;2.88;;
10963;SDS011;5534;48.784;9.190;2023-05-07T15:21:03;4.45;;;2.40;;